sensor_id;sensor_type;location;lat;lon;timestamp;pressure;altitude;pressure_sealevel;temperature;humidity
22580;BME280;11456;47.030;15.396;2022-07-17T00:02:12;98258.00;;;18.73;73.80
22580;BME280;11456;47.030;15.396;2022-07-17T00:04:39;98258.53;;;18.83;73.22
22580;BME280;11456;47.030;15.396;2022-07-17T00:07:06;98263.25;;;18.89;73.02
22580;BME280;11456;47.030;15.396;2022-07-17T00:09:32;98276.06;;;18.74;73.94
22580;BME280;11456;47.030;15.396;2022-07-17T00:11:59;98268.59;;;18.53;75.38
22580;BME280;11456;47.030;15.396;2022-07-17T00:14:26;98282.38;;;18.74;74.62
22580;BME280;11456;47.030;15.396;2022-07-17T00:16:52;98283.03;;;18.62;75.06
22580;BME280;11456;47.030;15.396;2022-07-17T00:19:20;98276.44;;;18.71;74.71
22580;BME280;11456;47.030;15.396;2022-07-17T00:21:47;98285.09;;;18.60;75.26
22580;BME280;11456;47.030;15.396;2022-07-17T00:24:13;98288.84;;;18.59;74.65
22580;BME280;11456;47.030;15.396;2022-07-17T00:26:51;98289.13;;;18.49;76.38
22580;BME280;11456;47.030;15.396;2022-07-17T00:29:18;98290.66;;;18.14;78.47
22580;BME280;11456;47.030;15.396;2022-07-17T00:31:45;98294.72;;;18.33;77.86
22580;BME280;11456;47.030;15.396;2022-07-17T00:34:13;98290.59;;;18.37;77.48
22580;BME280;11456;47.030;15.396;2022-07-17T00:36:39;98299.09;;;18.19;78.78
22580;BME280;11456;47.030;15.396;2022-07-17T00:39:06;98291.59;;;18.21;78.83
22580;BME280;11456;47.030;15.396;2022-07-17T00:41:33;98292.34;;;18.15;79.02
22580;BME280;11456;47.030;15.396;2022-07-17T00:44:07;98293.75;;;18.11;79.68
22580;BME280;11456;47.030;15.396;2022-07-17T00:46:34;98294.25;;;17.92;80.94
22580;BME280;11456;47.030;15.396;2022-07-17T00:49:02;98294.91;;;17.94;80.78
22580;BME280;11456;47.030;15.396;2022-07-17T00:51:29;98295.53;;;18.04;80.24
22580;BME280;11456;47.030;15.396;2022-07-17T00:53:58;98303.69;;;18.04;80.45
22580;BME280;11456;47.030;15.396;2022-07-17T00:56:31;98300.59;;;18.07;79.69
22580;BME280;11456;47.030;15.396;2022-07-17T00:59:00;98295.34;;;18.20;79.55
22580;BME280;11456;47.030;15.396;2022-07-17T01:01:26;98296.09;;;18.14;79.58
22580;BME280;11456;47.030;15.396;2022-07-17T01:03:54;98303.69;;;18.04;80.29
22580;BME280;11456;47.030;15.396;2022-07-17T01:06:20;98306.69;;;17.72;82.12
22580;BME280;11456;47.030;15.396;2022-07-17T01:08:47;98308.59;;;17.63;82.93
22580;BME280;11456;47.030;15.396;2022-07-17T01:11:14;98312.31;;;17.70;82.59
22580;BME280;11456;47.030;15.396;2022-07-17T01:13:40;98310.16;;;17.57;84.13
22580;BME280;11456;47.030;15.396;2022-07-17T01:16:08;98319.28;;;17.73;83.81
22580;BME280;11456;47.030;15.396;2022-07-17T01:18:35;98320.47;;;17.70;83.61
22580;BME280;11456;47.030;15.396;2022-07-17T01:21:06;98321.28;;;17.79;83.66
22580;BME280;11456;47.030;15.396;2022-07-17T01:23:33;98317.81;;;17.85;83.48
22580;BME280;11456;47.030;15.396;2022-07-17T01:25:59;98306.47;;;17.96;83.10
22580;BME280;11456;47.030;15.396;2022-07-17T01:28:26;98313.00;;;17.87;83.20
22580;BME280;11456;47.030;15.396;2022-07-17T01:30:53;98319.56;;;17.78;83.18
22580;BME280;11456;47.030;15.396;2022-07-17T01:33:20;98322.34;;;17.70;83.96
22580;BME280;11456;47.030;15.396;2022-07-17T01:35:49;98321.63;;;17.45;85.73
22580;BME280;11456;47.030;15.396;2022-07-17T01:38:16;98328.19;;;17.58;84.53
22580;BME280;11456;47.030;15.396;2022-07-17T01:40:43;98337.03;;;17.60;84.00
22580;BME280;11456;47.030;15.396;2022-07-17T01:43:10;98339.09;;;17.58;84.16
22580;BME280;11456;47.030;15.396;2022-07-17T01:45:37;98342.16;;;17.63;83.92
22580;BME280;11456;47.030;15.396;2022-07-17T01:48:04;98351.75;;;17.43;86.07
22580;BME280;11456;47.030;15.396;2022-07-17T01:50:32;98344.56;;;17.50;86.36
22580;BME280;11456;47.030;15.396;2022-07-17T01:52:58;98348.88;;;17.45;86.61
22580;BME280;11456;47.030;15.396;2022-07-17T01:55:25;98349.16;;;17.19;87.32
22580;BME280;11456;47.030;15.396;2022-07-17T01:57:51;98352.91;;;17.18;88.55
22580;BME280;11456;47.030;15.396;2022-07-17T02:00:19;98355.03;;;17.39;87.30
22580;BME280;11456;47.030;15.396;2022-07-17T02:02:50;98350.28;;;17.33;86.94
22580;BME280;11456;47.030;15.396;2022-07-17T02:05:17;98357.47;;;17.56;86.37
22580;BME280;11456;47.030;15.396;2022-07-17T02:07:43;98352.00;;;17.65;85.32
22580;BME280;11456;47.030;15.396;2022-07-17T02:10:11;98356.50;;;17.49;86.04
22580;BME280;11456;47.030;15.396;2022-07-17T02:12:44;98361.31;;;17.39;85.94
22580;BME280;11456;47.030;15.396;2022-07-17T02:15:11;98355.59;;;17.26;88.04
22580;BME280;11456;47.030;15.396;2022-07-17T02:17:39;98368.06;;;17.12;89.90
22580;BME280;11456;47.030;15.396;2022-07-17T02:20:09;98369.38;;;17.63;86.93
22580;BME280;11456;47.030;15.396;2022-07-17T02:22:37;98367.63;;;17.40;88.63
22580;BME280;11456;47.030;15.396;2022-07-17T02:25:05;98369.69;;;17.30;89.31
22580;BME280;11456;47.030;15.396;2022-07-17T02:27:33;98370.06;;;17.27;88.32
22580;BME280;11456;47.030;15.396;2022-07-17T02:30:12;98372.50;;;17.13;89.74
22580;BME280;11456;47.030;15.396;2022-07-17T02:32:39;98366.41;;;17.03;89.74
22580;BME280;11456;47.030;15.396;2022-07-17T02:35:08;98366.81;;;17.31;88.96
22580;BME280;11456;47.030;15.396;2022-07-17T02:37:35;98377.22;;;17.28;88.94
22580;BME280;11456;47.030;15.396;2022-07-17T02:40:04;98378.44;;;17.17;90.60
22580;BME280;11456;47.030;15.396;2022-07-17T02:42:31;98374.38;;;17.13;92.52
22580;BME280;11456;47.030;15.396;2022-07-17T02:44:59;98381.19;;;17.09;91.35
22580;BME280;11456;47.030;15.396;2022-07-17T02:47:29;98377.81;;;17.07;91.64
22580;BME280;11456;47.030;15.396;2022-07-17T02:49:56;98385.97;;;16.99;92.01
22580;BME280;11456;47.030;15.396;2022-07-17T02:52:23;98390.75;;;16.97;91.40
22580;BME280;11456;47.030;15.396;2022-07-17T02:54:50;98387.72;;;16.83;92.12
22580;BME280;11456;47.030;15.396;2022-07-17T02:57:17;98390.09;;;16.87;92.06
22580;BME280;11456;47.030;15.396;2022-07-17T02:59:45;98391.97;;;16.86;91.86
22580;BME280;11456;47.030;15.396;2022-07-17T03:02:12;98394.53;;;16.88;92.26
22580;BME280;11456;47.030;15.396;2022-07-17T03:04:39;98400.97;;;16.95;91.52
22580;BME280;11456;47.030;15.396;2022-07-17T03:07:05;98399.28;;;16.77;94.28
22580;BME280;11456;47.030;15.396;2022-07-17T03:09:32;98402.53;;;16.89;93.47
22580;BME280;11456;47.030;15.396;2022-07-17T03:11:59;98412.94;;;16.69;94.82
22580;BME280;11456;47.030;15.396;2022-07-17T03:14:26;98406.59;;;16.85;93.77
22580;BME280;11456;47.030;15.396;2022-07-17T03:16:53;98404.06;;;16.59;95.95
22580;BME280;11456;47.030;15.396;2022-07-17T03:19:20;98413.63;;;16.63;96.52
22580;BME280;11456;47.030;15.396;2022-07-17T03:21:47;98411.88;;;16.78;95.10
22580;BME280;11456;47.030;15.396;2022-07-17T03:24:13;98411.00;;;16.86;94.49
22580;BME280;11456;47.030;15.396;2022-07-17T03:26:40;98413.91;;;16.93;93.93
22580;BME280;11456;47.030;15.396;2022-07-17T03:29:07;98413.19;;;16.99;93.21
22580;BME280;11456;47.030;15.396;2022-07-17T03:31:33;98419.31;;;17.09;92.70
22580;BME280;11456;47.030;15.396;2022-07-17T03:34:00;98422.88;;;17.48;90.29
22580;BME280;11456;47.030;15.396;2022-07-17T03:36:27;98429.91;;;17.35;90.51
22580;BME280;11456;47.030;15.396;2022-07-17T03:38:54;98424.38;;;17.20;91.98
22580;BME280;11456;47.030;15.396;2022-07-17T03:41:20;98433.47;;;17.35;91.29
22580;BME280;11456;47.030;15.396;2022-07-17T03:43:47;98435.00;;;17.46;89.34
22580;BME280;11456;47.030;15.396;2022-07-17T03:46:14;98442.94;;;17.55;89.17
22580;BME280;11456;47.030;15.396;2022-07-17T03:48:41;98446.63;;;17.79;88.14
22580;BME280;11456;47.030;15.396;2022-07-17T03:51:07;98454.38;;;17.90;87.32
22580;BME280;11456;47.030;15.396;2022-07-17T03:53:34;98461.47;;;17.99;78.67
22580;BME280;11456;47.030;15.396;2022-07-17T03:56:01;98458.13;;;17.89;72.96
22580;BME280;11456;47.030;15.396;2022-07-17T03:58:27;98461.69;;;17.89;68.59
22580;BME280;11456;47.030;15.396;2022-07-17T04:00:54;98457.63;;;18.16;62.22
22580;BME280;11456;47.030;15.396;2022-07-17T04:03:21;98459.31;;;18.63;62.93
22580;BME280;11456;47.030;15.396;2022-07-17T04:05:47;98456.50;;;18.94;61.86
22580;BME280;11456;47.030;15.396;2022-07-17T04:08:14;98455.00;;;19.06;61.58
22580;BME280;11456;47.030;15.396;2022-07-17T04:10:42;98456.81;;;19.13;61.93
22580;BME280;11456;47.030;15.396;2022-07-17T04:13:09;98453.41;;;19.11;60.58
22580;BME280;11456;47.030;15.396;2022-07-17T04:15:36;98462.78;;;18.79;62.29
22580;BME280;11456;47.030;15.396;2022-07-17T04:18:24;98465.59;;;18.86;63.29
22580;BME280;11456;47.030;15.396;2022-07-17T04:20:52;98459.13;;;18.87;64.13
22580;BME280;11456;47.030;15.396;2022-07-17T04:23:19;98461.41;;;18.98;63.93
22580;BME280;11456;47.030;15.396;2022-07-17T04:25:46;98471.69;;;18.73;65.25
22580;BME280;11456;47.030;15.396;2022-07-17T04:28:12;98476.53;;;18.86;65.89
22580;BME280;11456;47.030;15.396;2022-07-17T04:30:39;98475.91;;;18.76;66.94
22580;BME280;11456;47.030;15.396;2022-07-17T04:33:06;98486.72;;;18.69;67.20
22580;BME280;11456;47.030;15.396;2022-07-17T04:35:34;98478.22;;;18.87;66.17
22580;BME280;11456;47.030;15.396;2022-07-17T04:38:01;98477.94;;;18.97;66.45
22580;BME280;11456;47.030;15.396;2022-07-17T04:40:33;98477.91;;;19.19;65.12
22580;BME280;11456;47.030;15.396;2022-07-17T04:43:01;98478.25;;;19.16;65.13
22580;BME280;11456;47.030;15.396;2022-07-17T04:45:28;98473.41;;;19.27;65.56
22580;BME280;11456;47.030;15.396;2022-07-17T04:47:55;98480.91;;;19.25;60.60
22580;BME280;11456;47.030;15.396;2022-07-17T04:50:22;98483.34;;;19.34;61.92
22580;BME280;11456;47.030;15.396;2022-07-17T04:52:49;98485.63;;;19.31;62.16
22580;BME280;11456;47.030;15.396;2022-07-17T04:55:16;98480.53;;;19.28;62.75
22580;BME280;11456;47.030;15.396;2022-07-17T04:57:43;98495.81;;;19.37;63.97
22580;BME280;11456;47.030;15.396;2022-07-17T05:00:11;98501.25;;;19.07;65.14
22580;BME280;11456;47.030;15.396;2022-07-17T05:02:38;98502.91;;;19.08;66.17
22580;BME280;11456;47.030;15.396;2022-07-17T05:05:05;98501.59;;;19.04;66.54
22580;BME280;11456;47.030;15.396;2022-07-17T05:07:32;98506.41;;;19.17;66.13
22580;BME280;11456;47.030;15.396;2022-07-17T05:09:59;98502.84;;;18.79;66.55
22580;BME280;11456;47.030;15.396;2022-07-17T05:12:26;98498.38;;;18.86;67.38
22580;BME280;11456;47.030;15.396;2022-07-17T05:14:53;98506.72;;;19.07;65.29
22580;BME280;11456;47.030;15.396;2022-07-17T05:17:20;98508.50;;;19.30;66.05
22580;BME280;11456;47.030;15.396;2022-07-17T05:19:47;98508.81;;;18.97;66.62
22580;BME280;11456;47.030;15.396;2022-07-17T05:22:14;98508.03;;;18.89;65.88
22580;BME280;11456;47.030;15.396;2022-07-17T05:24:41;98516.03;;;18.75;66.11
22580;BME280;11456;47.030;15.396;2022-07-17T05:27:08;98514.56;;;19.02;64.63
22580;BME280;11456;47.030;15.396;2022-07-17T05:29:34;98516.50;;;19.16;62.68
22580;BME280;11456;47.030;15.396;2022-07-17T05:32:02;98513.03;;;19.22;58.15
22580;BME280;11456;47.030;15.396;2022-07-17T05:34:29;98509.88;;;19.48;57.08
22580;BME280;11456;47.030;15.396;2022-07-17T05:36:55;98515.88;;;19.44;55.54
22580;BME280;11456;47.030;15.396;2022-07-17T05:39:22;98510.47;;;19.58;54.67
22580;BME280;11456;47.030;15.396;2022-07-17T05:41:49;98512.97;;;19.60;54.06
22580;BME280;11456;47.030;15.396;2022-07-17T05:44:15;98524.81;;;19.38;54.00
22580;BME280;11456;47.030;15.396;2022-07-17T05:46:42;98524.84;;;19.67;53.02
22580;BME280;11456;47.030;15.396;2022-07-17T05:49:09;98533.91;;;19.53;52.07
22580;BME280;11456;47.030;15.396;2022-07-17T05:51:35;98521.75;;;19.70;52.17
22580;BME280;11456;47.030;15.396;2022-07-17T05:54:02;98529.78;;;19.57;51.09
22580;BME280;11456;47.030;15.396;2022-07-17T05:56:29;98536.28;;;19.71;50.33
22580;BME280;11456;47.030;15.396;2022-07-17T05:58:55;98533.41;;;19.93;49.31
22580;BME280;11456;47.030;15.396;2022-07-17T06:01:22;98531.03;;;20.05;49.67
22580;BME280;11456;47.030;15.396;2022-07-17T06:03:49;98530.50;;;20.31;48.99
22580;BME280;11456;47.030;15.396;2022-07-17T06:06:16;98521.97;;;20.34;47.76
22580;BME280;11456;47.030;15.396;2022-07-17T06:08:42;98531.78;;;20.86;47.61
22580;BME280;11456;47.030;15.396;2022-07-17T06:11:09;98524.28;;;21.43;46.15
22580;BME280;11456;47.030;15.396;2022-07-17T06:13:36;98530.25;;;21.53;44.94
22580;BME280;11456;47.030;15.396;2022-07-17T06:16:03;98517.34;;;21.82;45.10
22580;BME280;11456;47.030;15.396;2022-07-17T06:18:30;98521.31;;;20.96;46.18
22580;BME280;11456;47.030;15.396;2022-07-17T06:20:57;98524.91;;;20.75;47.60
22580;BME280;11456;47.030;15.396;2022-07-17T06:23:24;98520.69;;;20.72;46.55
22580;BME280;11456;47.030;15.396;2022-07-17T06:25:51;98520.22;;;21.67;45.26
22580;BME280;11456;47.030;15.396;2022-07-17T06:28:17;98519.50;;;21.24;46.73
22580;BME280;11456;47.030;15.396;2022-07-17T06:30:44;98518.06;;;21.63;45.33
22580;BME280;11456;47.030;15.396;2022-07-17T06:33:11;98518.66;;;21.24;46.20
22580;BME280;11456;47.030;15.396;2022-07-17T06:35:37;98527.16;;;21.35;46.92
22580;BME280;11456;47.030;15.396;2022-07-17T06:38:10;98528.63;;;21.66;46.16
22580;BME280;11456;47.030;15.396;2022-07-17T06:40:37;98527.97;;;21.08;48.51
22580;BME280;11456;47.030;15.396;2022-07-17T06:43:05;98520.25;;;21.74;47.24
22580;BME280;11456;47.030;15.396;2022-07-17T06:45:32;98530.88;;;21.28;47.37
22580;BME280;11456;47.030;15.396;2022-07-17T06:47:59;98527.44;;;21.75;46.89
22580;BME280;11456;47.030;15.396;2022-07-17T06:50:26;98532.44;;;22.60;44.53
22580;BME280;11456;47.030;15.396;2022-07-17T06:52:53;98532.34;;;22.20;45.11
22580;BME280;11456;47.030;15.396;2022-07-17T06:55:19;98534.25;;;21.92;46.20
22580;BME280;11456;47.030;15.396;2022-07-17T06:57:46;98541.34;;;22.68;44.28
22580;BME280;11456;47.030;15.396;2022-07-17T07:00:13;98538.00;;;22.73;43.79
22580;BME280;11456;47.030;15.396;2022-07-17T07:02:41;98536.19;;;22.39;43.64
22580;BME280;11456;47.030;15.396;2022-07-17T07:05:08;98533.81;;;22.97;43.29
22580;BME280;11456;47.030;15.396;2022-07-17T07:07:35;98538.84;;;22.73;42.85
22580;BME280;11456;47.030;15.396;2022-07-17T07:10:02;98530.63;;;22.80;42.76
22580;BME280;11456;47.030;15.396;2022-07-17T07:12:29;98527.06;;;23.52;41.83
22580;BME280;11456;47.030;15.396;2022-07-17T07:14:57;98534.56;;;22.64;42.10
22580;BME280;11456;47.030;15.396;2022-07-17T07:17:23;98519.44;;;23.21;41.52
22580;BME280;11456;47.030;15.396;2022-07-17T07:19:50;98520.47;;;22.87;42.81
22580;BME280;11456;47.030;15.396;2022-07-17T07:22:17;98528.91;;;22.79;43.69
22580;BME280;11456;47.030;15.396;2022-07-17T07:24:43;98525.34;;;23.25;43.00
22580;BME280;11456;47.030;15.396;2022-07-17T07:27:10;98517.34;;;23.16;42.43
22580;BME280;11456;47.030;15.396;2022-07-17T07:29:37;98512.44;;;23.71;41.84
22580;BME280;11456;47.030;15.396;2022-07-17T07:32:04;98512.94;;;24.26;41.19
22580;BME280;11456;47.030;15.396;2022-07-17T07:34:30;98520.69;;;23.32;41.95
22580;BME280;11456;47.030;15.396;2022-07-17T07:36:57;98519.84;;;23.64;41.88
22580;BME280;11456;47.030;15.396;2022-07-17T07:39:24;98514.34;;;23.64;41.84
22580;BME280;11456;47.030;15.396;2022-07-17T07:41:51;98517.19;;;24.02;41.31
22580;BME280;11456;47.030;15.396;2022-07-17T07:44:18;98521.28;;;24.51;41.02
22580;BME280;11456;47.030;15.396;2022-07-17T07:46:57;98520.31;;;24.32;40.82
22580;BME280;11456;47.030;15.396;2022-07-17T07:49:23;98510.50;;;23.85;41.16
22580;BME280;11456;47.030;15.396;2022-07-17T07:51:50;98521.94;;;23.75;41.95
22580;BME280;11456;47.030;15.396;2022-07-17T07:54:28;98518.56;;;23.80;40.84
22580;BME280;11456;47.030;15.396;2022-07-17T07:56:55;98510.88;;;23.95;40.99
22580;BME280;11456;47.030;15.396;2022-07-17T07:59:22;98517.06;;;23.77;40.16
22580;BME280;11456;47.030;15.396;2022-07-17T08:01:49;98514.31;;;23.77;41.15
22580;BME280;11456;47.030;15.396;2022-07-17T08:04:15;98513.56;;;24.15;39.64
22580;BME280;11456;47.030;15.396;2022-07-17T08:06:42;98502.84;;;23.93;40.55
22580;BME280;11456;47.030;15.396;2022-07-17T08:09:09;98506.56;;;23.48;41.02
22580;BME280;11456;47.030;15.396;2022-07-17T08:11:36;98505.22;;;24.41;39.41
22580;BME280;11456;47.030;15.396;2022-07-17T08:14:03;98507.09;;;25.10;38.36
22580;BME280;11456;47.030;15.396;2022-07-17T08:16:40;98503.38;;;25.23;37.92
22580;BME280;11456;47.030;15.396;2022-07-17T08:19:07;98500.91;;;26.19;36.89
22580;BME280;11456;47.030;15.396;2022-07-17T08:21:33;98499.16;;;25.88;37.28
22580;BME280;11456;47.030;15.396;2022-07-17T08:24:00;98508.69;;;24.17;39.86
22580;BME280;11456;47.030;15.396;2022-07-17T08:26:27;98507.03;;;24.92;39.59
22580;BME280;11456;47.030;15.396;2022-07-17T08:28:54;98502.38;;;24.92;39.48
22580;BME280;11456;47.030;15.396;2022-07-17T08:31:21;98507.03;;;24.92;38.93
22580;BME280;11456;47.030;15.396;2022-07-17T08:33:47;98510.88;;;24.84;40.07
22580;BME280;11456;47.030;15.396;2022-07-17T08:36:14;98510.53;;;25.30;39.15
22580;BME280;11456;47.030;15.396;2022-07-17T08:38:41;98518.91;;;24.86;39.16
22580;BME280;11456;47.030;15.396;2022-07-17T08:41:08;98505.69;;;25.50;38.17
22580;BME280;11456;47.030;15.396;2022-07-17T08:43:36;98517.44;;;25.21;39.61
22580;BME280;11456;47.030;15.396;2022-07-17T08:46:11;98509.38;;;24.57;40.63
22580;BME280;11456;47.030;15.396;2022-07-17T08:48:40;98504.38;;;25.60;38.60
22580;BME280;11456;47.030;15.396;2022-07-17T08:51:10;98509.63;;;25.36;38.80
22580;BME280;11456;47.030;15.396;2022-07-17T08:53:38;98507.16;;;25.96;36.76
22580;BME280;11456;47.030;15.396;2022-07-17T08:56:05;98511.25;;;26.60;36.48
22580;BME280;11456;47.030;15.396;2022-07-17T08:58:31;98510.81;;;25.47;37.73
22580;BME280;11456;47.030;15.396;2022-07-17T09:00:58;98511.59;;;26.33;36.06
22580;BME280;11456;47.030;15.396;2022-07-17T09:03:25;98513.88;;;27.38;35.58
22580;BME280;11456;47.030;15.396;2022-07-17T09:05:52;98504.22;;;27.29;35.52
22580;BME280;11456;47.030;15.396;2022-07-17T09:08:21;98503.38;;;27.40;33.97
22580;BME280;11456;47.030;15.396;2022-07-17T09:10:50;98508.69;;;28.00;33.09
22580;BME280;11456;47.030;15.396;2022-07-17T09:15:52;98501.00;;;28.82;31.75
22580;BME280;11456;47.030;15.396;2022-07-17T09:18:20;98503.53;;;28.15;31.89
22580;BME280;11456;47.030;15.396;2022-07-17T09:20:53;98510.09;;;26.79;34.51
22580;BME280;11456;47.030;15.396;2022-07-17T09:23:23;98497.66;;;26.88;34.23
22580;BME280;11456;47.030;15.396;2022-07-17T09:25:52;98507.72;;;27.24;33.87
22580;BME280;11456;47.030;15.396;2022-07-17T09:28:19;98504.88;;;26.89;34.35
22580;BME280;11456;47.030;15.396;2022-07-17T09:30:50;98504.38;;;25.78;35.23
22580;BME280;11456;47.030;15.396;2022-07-17T09:33:20;98506.63;;;26.84;34.48
22580;BME280;11456;47.030;15.396;2022-07-17T09:35:52;98500.63;;;26.75;34.07
22580;BME280;11456;47.030;15.396;2022-07-17T09:38:41;98498.09;;;26.25;34.32
22580;BME280;11456;47.030;15.396;2022-07-17T09:41:14;98497.56;;;25.55;35.31
22580;BME280;11456;47.030;15.396;2022-07-17T09:43:56;98504.38;;;26.14;35.65
22580;BME280;11456;47.030;15.396;2022-07-17T09:46:30;98495.03;;;26.93;33.32
22580;BME280;11456;47.030;15.396;2022-07-17T09:49:03;98496.16;;;27.16;33.92
22580;BME280;11456;47.030;15.396;2022-07-17T09:51:33;98493.88;;;28.06;33.60
22580;BME280;11456;47.030;15.396;2022-07-17T09:54:02;98494.84;;;28.23;31.85
22580;BME280;11456;47.030;15.396;2022-07-17T09:56:34;98494.09;;;26.99;35.15
22580;BME280;11456;47.030;15.396;2022-07-17T09:59:05;98497.00;;;28.21;32.40
22580;BME280;11456;47.030;15.396;2022-07-17T10:01:33;98490.06;;;27.83;32.71
22580;BME280;11456;47.030;15.396;2022-07-17T10:04:01;98486.66;;;27.11;34.14
22580;BME280;11456;47.030;15.396;2022-07-17T10:06:28;98483.78;;;26.47;35.39
22580;BME280;11456;47.030;15.396;2022-07-17T10:08:56;98484.16;;;26.80;34.33
22580;BME280;11456;47.030;15.396;2022-07-17T10:11:26;98476.34;;;27.42;34.44
22580;BME280;11456;47.030;15.396;2022-07-17T10:13:56;98464.66;;;28.38;32.55
22580;BME280;11456;47.030;15.396;2022-07-17T10:16:28;98474.63;;;26.94;33.89
22580;BME280;11456;47.030;15.396;2022-07-17T10:18:57;98464.94;;;26.25;36.69
22580;BME280;11456;47.030;15.396;2022-07-17T10:21:30;98465.88;;;26.79;35.57
22580;BME280;11456;47.030;15.396;2022-07-17T10:29:09;98461.13;;;26.26;35.91
22580;BME280;11456;47.030;15.396;2022-07-17T10:31:52;98460.41;;;26.49;35.30
22580;BME280;11456;47.030;15.396;2022-07-17T10:34:35;98456.94;;;26.95;36.45
22580;BME280;11456;47.030;15.396;2022-07-17T10:37:22;98465.72;;;26.62;36.13
22580;BME280;11456;47.030;15.396;2022-07-17T10:40:24;98454.69;;;26.74;35.66
22580;BME280;11456;47.030;15.396;2022-07-17T10:43:05;98452.75;;;27.28;34.10
22580;BME280;11456;47.030;15.396;2022-07-17T10:48:17;98447.53;;;28.98;31.46
22580;BME280;11456;47.030;15.396;2022-07-17T10:50:48;98453.84;;;26.62;35.50
22580;BME280;11456;47.030;15.396;2022-07-17T10:53:23;98445.22;;;27.58;34.00
22580;BME280;11456;47.030;15.396;2022-07-17T10:55:56;98444.72;;;28.13;33.07
22580;BME280;11456;47.030;15.396;2022-07-17T10:58:29;98446.00;;;27.47;34.82
22580;BME280;11456;47.030;15.396;2022-07-17T11:01:13;98438.13;;;28.99;32.63
22580;BME280;11456;47.030;15.396;2022-07-17T11:06:26;98418.94;;;28.24;32.96
22580;BME280;11456;47.030;15.396;2022-07-17T11:09:04;98437.09;;;26.98;34.47
22580;BME280;11456;47.030;15.396;2022-07-17T11:11:45;98421.25;;;27.05;33.89
22580;BME280;11456;47.030;15.396;2022-07-17T11:14:15;98414.56;;;28.85;32.87
22580;BME280;11456;47.030;15.396;2022-07-17T11:16:47;98414.91;;;29.05;31.43
22580;BME280;11456;47.030;15.396;2022-07-17T11:21:55;98401.03;;;28.43;32.56
22580;BME280;11456;47.030;15.396;2022-07-17T11:24:24;98406.09;;;28.46;33.17
22580;BME280;11456;47.030;15.396;2022-07-17T11:26:52;98405.34;;;27.82;32.74
22580;BME280;11456;47.030;15.396;2022-07-17T11:29:20;98412.22;;;26.98;34.20
22580;BME280;11456;47.030;15.396;2022-07-17T11:31:54;98402.88;;;29.49;31.63
22580;BME280;11456;47.030;15.396;2022-07-17T11:34:24;98397.94;;;28.85;31.63
22580;BME280;11456;47.030;15.396;2022-07-17T11:37:02;98388.94;;;28.78;32.45
22580;BME280;11456;47.030;15.396;2022-07-17T11:39:49;98386.59;;;28.41;31.21
22580;BME280;11456;47.030;15.396;2022-07-17T11:42:21;98391.75;;;28.21;31.60
22580;BME280;11456;47.030;15.396;2022-07-17T11:44:55;98384.53;;;29.48;30.53
22580;BME280;11456;47.030;15.396;2022-07-17T11:47:24;98385.72;;;29.19;31.23
22580;BME280;11456;47.030;15.396;2022-07-17T11:50:09;98379.69;;;28.44;33.05
22580;BME280;11456;47.030;15.396;2022-07-17T11:52:47;98384.16;;;28.90;30.95
22580;BME280;11456;47.030;15.396;2022-07-17T11:55:17;98376.84;;;28.84;32.14
22580;BME280;11456;47.030;15.396;2022-07-17T11:57:46;98377.34;;;30.40;29.77
22580;BME280;11456;47.030;15.396;2022-07-17T12:00:18;98379.41;;;29.07;30.90
22580;BME280;11456;47.030;15.396;2022-07-17T12:02:46;98367.31;;;29.30;31.80
22580;BME280;11456;47.030;15.396;2022-07-17T12:05:13;98368.28;;;28.40;32.29
22580;BME280;11456;47.030;15.396;2022-07-17T12:07:44;98360.28;;;28.27;32.46
22580;BME280;11456;47.030;15.396;2022-07-17T12:10:20;98368.50;;;28.84;32.15
22580;BME280;11456;47.030;15.396;2022-07-17T12:13:00;98359.72;;;28.87;31.32
22580;BME280;11456;47.030;15.396;2022-07-17T12:15:56;98368.41;;;29.67;30.54
22580;BME280;11456;47.030;15.396;2022-07-17T12:18:27;98372.28;;;29.44;30.80
22580;BME280;11456;47.030;15.396;2022-07-17T12:21:03;98369.88;;;28.98;31.18
22580;BME280;11456;47.030;15.396;2022-07-17T12:23:35;98367.22;;;29.08;31.20
22580;BME280;11456;47.030;15.396;2022-07-17T12:26:09;98354.25;;;29.69;31.53
22580;BME280;11456;47.030;15.396;2022-07-17T12:28:38;98354.28;;;28.63;31.80
22580;BME280;11456;47.030;15.396;2022-07-17T12:31:07;98362.28;;;28.77;32.30
22580;BME280;11456;47.030;15.396;2022-07-17T12:33:34;98363.16;;;28.04;33.82
22580;BME280;11456;47.030;15.396;2022-07-17T12:36:01;98347.09;;;28.06;32.73
22580;BME280;11456;47.030;15.396;2022-07-17T12:38:28;98350.34;;;28.59;32.35
22580;BME280;11456;47.030;15.396;2022-07-17T12:40:55;98342.78;;;29.82;31.27
22580;BME280;11456;47.030;15.396;2022-07-17T12:43:23;98344.97;;;29.03;32.72
22580;BME280;11456;47.030;15.396;2022-07-17T12:45:50;98337.72;;;29.35;31.66
22580;BME280;11456;47.030;15.396;2022-07-17T12:48:18;98331.59;;;29.00;31.64
22580;BME280;11456;47.030;15.396;2022-07-17T12:50:44;98332.72;;;28.82;32.81
22580;BME280;11456;47.030;15.396;2022-07-17T12:53:11;98325.44;;;30.18;31.46
22580;BME280;11456;47.030;15.396;2022-07-17T12:55:38;98335.06;;;30.38;30.61
22580;BME280;11456;47.030;15.396;2022-07-17T12:58:05;98320.09;;;29.08;32.28
22580;BME280;11456;47.030;15.396;2022-07-17T13:00:32;98328.63;;;29.62;31.31
22580;BME280;11456;47.030;15.396;2022-07-17T13:03:01;98323.59;;;29.20;32.32
22580;BME280;11456;47.030;15.396;2022-07-17T13:05:29;98333.06;;;27.96;33.99
22580;BME280;11456;47.030;15.396;2022-07-17T13:07:55;98331.19;;;29.08;32.48
22580;BME280;11456;47.030;15.396;2022-07-17T13:10:22;98321.88;;;28.81;33.42
22580;BME280;11456;47.030;15.396;2022-07-17T13:12:49;98316.81;;;29.49;34.33
22580;BME280;11456;47.030;15.396;2022-07-17T13:15:16;98322.88;;;28.13;33.79